Time;durP1;ratioP1;P1;durP2;ratioP2;P2;SDS_P1;SDS_P2;PMS_P1;PMS_P2;Temp;Humidity;BMP_temperature;BMP_pressure;BME280_temperature;BME280_humidity;BME280_pressure;Samples;Min_cycle;Max_cycle;Signal;HPM_P1;HPM_P2
2022/01/27 00:02:21;;;;;;;81.45;31.40;;;2.80;99.90;;;;;;12600740;28;20060;-40
2022/01/27 00:08:13;;;;;;;75.85;27.50;;;2.80;99.90;;;;;;12600283;28;20052;-36
2022/01/27 00:14:17;;;;;;;77.63;29.92;;;2.80;99.90;;;;;;12602436;28;20194;-37
2022/01/27 00:20:21;;;;;;;77.90;30.23;;;2.80;99.90;;;;;;12599814;28;20048;-41
2022/01/27 00:26:23;;;;;;;72.93;30.23;;;2.80;99.90;;;;;;12586731;28;20056;-36
2022/01/27 00:32:26;;;;;;;72.35;29.33;;;2.80;99.90;;;;;;12598204;28;20059;-40
2022/01/27 00:38:30;;;;;;;68.40;27.70;;;2.90;99.90;;;;;;12601886;28;20083;-36
2022/01/27 00:44:39;;;;;;;74.57;29.60;;;2.90;99.90;;;;;;12601285;28;20472;-41
2022/01/27 00:50:41;;;;;;;74.65;29.52;;;2.90;99.90;;;;;;12596471;28;20048;-36
2022/01/27 01:03:04;;;;;;;65.97;26.65;;;3.00;99.90;;;;;;12598183;28;20097;-37
2022/01/27 01:15:48;;;;;;;64.78;30.15;;;3.10;99.90;;;;;;12513800;28;20946;-36
2022/01/27 01:34:33;;;;;;;69.60;31.10;;;3.00;99.90;;;;;;12604773;28;20047;-41
2022/01/27 01:40:36;;;;;;;67.10;28.42;;;3.10;99.90;;;;;;12590032;28;20138;-36
2022/01/27 01:46:42;;;;;;;55.33;27.17;;;3.10;99.90;;;;;;12608273;28;20052;-40
2022/01/27 01:52:44;;;;;;;73.93;31.83;;;3.20;99.90;;;;;;12606658;28;20044;-42
2022/01/27 01:58:47;;;;;;;67.72;29.67;;;3.20;99.90;;;;;;12605940;28;20262;-41
2022/01/27 02:04:49;;;;;;;70.90;30.38;;;3.00;99.90;;;;;;12610336;28;20053;-37
2022/01/27 02:23:34;;;;;;;72.97;30.60;;;2.90;99.90;;;;;;12597136;28;20113;-36
2022/01/27 02:29:40;;;;;;;62.50;27.65;;;2.80;99.90;;;;;;12607067;28;20205;-37
2022/01/27 02:35:43;;;;;;;64.43;27.35;;;2.90;99.90;;;;;;12604042;28;20056;-41
2022/01/27 02:41:55;;;;;;;62.60;27.05;;;2.90;99.90;;;;;;12609393;28;20467;-42
2022/01/27 02:47:59;;;;;;;60.00;26.20;;;2.90;99.90;;;;;;12609068;28;20508;-37
2022/01/27 02:54:02;;;;;;;60.17;27.23;;;2.80;99.90;;;;;;12599861;28;20052;-36
2022/01/27 03:00:06;;;;;;;60.33;27.52;;;2.90;99.90;;;;;;12594276;28;20140;-40
2022/01/27 03:06:08;;;;;;;54.47;25.70;;;2.80;99.90;;;;;;12604330;28;20055;-41
2022/01/27 03:12:12;;;;;;;59.17;26.23;;;2.80;99.90;;;;;;12604826;28;20056;-41
2022/01/27 03:18:15;;;;;;;60.47;26.65;;;2.80;99.90;;;;;;12586635;28;20052;-41
2022/01/27 03:24:18;;;;;;;57.80;28.63;;;2.80;99.90;;;;;;12600964;28;20067;-36
2022/01/27 03:30:22;;;;;;;55.53;26.60;;;2.80;99.90;;;;;;12594907;28;20062;-40
2022/01/27 03:36:25;;;;;;;59.72;25.02;;;2.80;99.90;;;;;;12599428;28;20048;-41
2022/01/27 03:42:29;;;;;;;54.05;25.90;;;2.80;99.90;;;;;;12599414;28;20519;-37
2022/01/27 03:48:31;;;;;;;54.20;26.08;;;2.80;99.90;;;;;;12605533;28;20040;-40
2022/01/27 03:54:35;;;;;;;52.20;26.05;;;2.90;99.90;;;;;;12589757;28;20052;-41
2022/01/27 04:00:37;;;;;;;52.88;25.92;;;2.90;99.90;;;;;;12604727;28;20139;-37
2022/01/27 04:06:40;;;;;;;51.95;25.70;;;2.90;99.90;;;;;;12599504;28;20052;-36
2022/01/27 04:12:43;;;;;;;56.95;25.58;;;2.90;99.90;;;;;;12602539;28;20143;-36
2022/01/27 04:18:46;;;;;;;52.55;26.83;;;2.90;99.90;;;;;;12602401;28;20511;-41
2022/01/27 04:24:48;;;;;;;52.00;25.73;;;2.80;99.90;;;;;;12600442;28;20067;-39
2022/01/27 04:30:52;;;;;;;50.97;25.20;;;2.90;99.90;;;;;;12600034;28;20048;-36
2022/01/27 04:36:56;;;;;;;52.03;25.73;;;2.90;99.90;;;;;;12599840;28;20084;-41
2022/01/27 04:43:08;;;;;;;47.88;23.17;;;2.90;99.90;;;;;;12598190;28;20056;-40
2022/01/27 04:49:12;;;;;;;62.13;26.00;;;2.90;99.90;;;;;;12594702;28;20049;-36
2022/01/27 04:55:19;;;;;;;51.17;25.80;;;2.90;99.90;;;;;;12585897;28;20040;-41
2022/01/27 05:01:29;;;;;;;52.67;25.38;;;2.90;99.90;;;;;;12602734;28;20036;-36
2022/01/27 05:07:31;;;;;;;52.75;26.90;;;2.90;99.90;;;;;;12607517;28;20114;-40
2022/01/27 05:13:42;;;;;;;50.72;25.65;;;2.90;99.90;;;;;;12603731;28;20040;-36
2022/01/27 05:19:47;;;;;;;49.28;23.52;;;3.00;99.90;;;;;;12599389;28;20511;-40
2022/01/27 05:25:50;;;;;;;47.40;23.58;;;3.00;99.90;;;;;;12611462;28;20111;-39
2022/01/27 05:31:53;;;;;;;50.85;26.45;;;3.00;99.90;;;;;;12599263;28;20413;-36
2022/01/27 05:37:58;;;;;;;47.63;24.23;;;3.00;99.90;;;;;;12607572;28;20052;-38
2022/01/27 05:44:01;;;;;;;51.67;24.45;;;3.00;99.90;;;;;;12608311;28;20044;-41
2022/01/27 05:50:04;;;;;;;53.15;25.88;;;3.00;99.90;;;;;;12594077;28;20048;-40
2022/01/27 05:56:07;;;;;;;46.95;22.63;;;3.00;99.90;;;;;;12604688;28;20456;-36
2022/01/27 06:02:08;;;;;;;48.92;23.92;;;3.10;99.90;;;;;;12598917;28;20365;-40
2022/01/27 06:08:11;;;;;;;56.20;24.77;;;3.10;99.90;;;;;;12591255;28;20080;-37
2022/01/27 06:14:14;;;;;;;48.88;24.63;;;3.10;99.90;;;;;;12601098;28;20409;-44
2022/01/27 06:20:18;;;;;;;47.58;23.85;;;3.20;99.90;;;;;;12606554;28;20055;-39
2022/01/27 06:26:23;;;;;;;46.67;23.65;;;3.20;99.90;;;;;;12602287;28;20084;-37
2022/01/27 06:32:29;;;;;;;46.38;23.67;;;3.20;99.90;;;;;;12602901;28;20059;-40
2022/01/27 06:38:43;;;;;;;49.38;24.20;;;3.20;99.90;;;;;;12615034;28;20053;-41
2022/01/27 06:44:58;;;;;;;46.15;23.52;;;3.20;99.90;;;;;;12614691;28;20511;-36
2022/01/27 06:51:09;;;;;;;58.15;23.75;;;3.30;99.90;;;;;;12590957;28;20065;-40
2022/01/27 06:57:22;;;;;;;52.72;24.15;;;3.30;99.90;;;;;;12611772;28;20044;-41
2022/01/27 07:03:33;;;;;;;49.80;24.65;;;3.30;99.90;;;;;;12601956;28;20412;-37
2022/01/27 07:09:42;;;;;;;56.55;25.30;;;3.30;99.90;;;;;;12614319;28;20064;-43
2022/01/27 07:15:44;;;;;;;57.42;24.65;;;3.20;99.90;;;;;;12603482;28;20131;-37
2022/01/27 07:21:48;;;;;;;61.15;26.15;;;3.20;99.90;;;;;;12601633;28;20041;-41
2022/01/27 07:27:53;;;;;;;50.65;23.40;;;3.20;99.90;;;;;;12604417;28;20060;-37
2022/01/27 07:33:59;;;;;;;50.45;25.42;;;3.20;99.90;;;;;;12591906;28;20036;-37
2022/01/27 07:40:02;;;;;;;50.50;23.83;;;3.20;99.90;;;;;;12604957;28;20060;-41
2022/01/27 07:46:08;;;;;;;49.33;24.33;;;3.20;99.90;;;;;;12593359;28;20048;-37
2022/01/27 07:52:11;;;;;;;45.33;23.20;;;3.30;99.90;;;;;;12604864;28;20052;-40
2022/01/27 07:58:13;;;;;;;46.05;21.23;;;3.30;99.90;;;;;;12606505;28;20177;-42
2022/01/27 08:04:17;;;;;;;46.95;22.50;;;3.30;99.90;;;;;;12590868;28;20052;-40
2022/01/27 08:10:24;;;;;;;49.95;24.35;;;3.30;99.90;;;;;;12606457;28;20151;-40
2022/01/27 08:16:31;;;;;;;51.72;24.05;;;3.40;99.90;;;;;;12598252;28;20092;-41
2022/01/27 08:22:44;;;;;;;53.20;25.17;;;3.30;99.90;;;;;;12577421;28;20416;-41
2022/01/27 08:28:58;;;;;;;52.88;26.38;;;3.30;99.90;;;;;;12597959;28;20465;-40
2022/01/27 08:35:05;;;;;;;51.60;24.92;;;3.40;99.90;;;;;;12603565;28;20097;-41
2022/01/27 08:41:21;;;;;;;51.50;23.90;;;3.40;99.90;;;;;;12608982;28;20051;-40
2022/01/27 08:47:41;;;;;;;49.05;22.90;;;3.50;99.90;;;;;;12610323;28;20093;-37
2022/01/27 08:53:58;;;;;;;39.13;20.48;;;3.50;99.90;;;;;;12599473;28;20484;-41
2022/01/27 09:00:23;;;;;;;39.13;20.38;;;3.60;99.90;;;;;;12589797;28;20105;-41
2022/01/27 09:06:53;;;;;;;38.22;21.17;;;3.60;99.90;;;;;;12595781;28;20070;-41
2022/01/27 09:12:59;;;;;;;38.70;20.05;;;3.70;99.90;;;;;;12598884;28;20052;-42
2022/01/27 09:19:03;;;;;;;;;;;3.70;99.90;;;;;;12600721;28;20056;-41
2022/01/27 09:25:20;;;;;;;32.60;16.67;;;3.70;99.90;;;;;;12598254;28;19921;-40
2022/01/27 09:31:23;;;;;;;31.05;17.30;;;3.80;99.90;;;;;;12599329;28;20700;-37
2022/01/27 09:37:24;;;;;;;30.30;16.40;;;3.90;99.90;;;;;;12595403;28;20051;-37
2022/01/27 09:43:26;;;;;;;28.88;15.73;;;3.90;99.90;;;;;;12599264;28;20060;-40
2022/01/27 09:49:42;;;;;;;31.65;15.85;;;4.00;99.90;;;;;;12604356;28;20052;-41
2022/01/27 09:55:45;;;;;;;27.00;14.98;;;4.20;99.90;;;;;;12604306;28;20101;-37
2022/01/27 10:02:09;;;;;;;22.88;13.27;;;4.20;99.90;;;;;;12603807;28;20044;-36
2022/01/27 10:08:16;;;;;;;20.88;11.98;;;4.30;99.90;;;;;;12605078;28;20423;-40
2022/01/27 10:14:26;;;;;;;20.25;12.30;;;4.40;99.90;;;;;;12602847;28;20048;-40
2022/01/27 10:20:28;;;;;;;22.50;12.27;;;4.40;99.90;;;;;;12602226;28;20448;-40
2022/01/27 10:26:41;;;;;;;22.85;12.55;;;4.50;99.90;;;;;;12603908;28;20147;-37
2022/01/27 10:32:50;;;;;;;22.45;12.50;;;4.60;99.90;;;;;;12602252;28;20139;-36
2022/01/27 10:38:56;;;;;;;24.75;13.25;;;4.70;99.90;;;;;;12604697;28;20049;-40
2022/01/27 10:45:07;;;;;;;22.33;12.88;;;4.60;99.90;;;;;;12601421;28;20051;-37
2022/01/27 10:51:18;;;;;;;23.02;12.57;;;4.60;99.90;;;;;;12600272;28;20056;-40
2022/01/27 10:57:24;;;;;;;26.98;12.65;;;4.70;99.90;;;;;;12605544;28;20455;-40
2022/01/27 11:03:28;;;;;;;17.95;10.68;;;4.70;99.90;;;;;;12602354;28;20052;-41
2022/01/27 11:09:34;;;;;;;19.70;10.95;;;4.80;99.90;;;;;;12599780;28;20143;-37
2022/01/27 11:15:37;;;;;;;19.45;10.93;;;4.80;99.90;;;;;;12598911;28;20049;-37
2022/01/27 11:21:44;;;;;;;15.52;9.80;;;4.80;99.90;;;;;;12601159;28;20090;-41
2022/01/27 11:27:50;;;;;;;16.40;8.63;;;4.90;99.90;;;;;;12548421;28;20456;-42
2022/01/27 11:34:03;;;;;;;16.98;9.32;;;5.00;99.90;;;;;;12549927;28;20052;-41
2022/01/27 11:40:09;;;;;;;18.38;10.00;;;5.20;99.90;;;;;;12551662;28;20454;-40
2022/01/27 11:46:33;;;;;;;18.48;10.48;;;5.20;99.90;;;;;;12553045;28;20063;-41
2022/01/27 11:52:51;;;;;;;;;;;5.30;99.90;;;;;;12550175;28;20055;-36
2022/01/27 11:58:57;;;;;;;20.85;12.02;;;5.40;99.90;;;;;;12548136;28;19951;-37
2022/01/27 12:05:13;;;;;;;18.77;11.77;;;5.30;99.90;;;;;;12550465;28;20056;-41
2022/01/27 12:11:51;;;;;;;21.73;11.23;;;5.40;99.90;;;;;;12546412;28;20110;-37
2022/01/27 12:18:34;;;;;;;21.60;12.30;;;5.40;99.90;;;;;;12501695;28;20469;-41
2022/01/27 12:24:57;;;;;;;21.35;11.65;;;5.50;99.90;;;;;;12574776;28;20715;-42
2022/01/27 12:31:01;;;;;;;21.50;11.13;;;5.60;99.90;;;;;;12601569;28;20068;-41
2022/01/27 12:37:12;;;;;;;18.77;11.57;;;5.70;99.90;;;;;;12601082;28;20102;-40
2022/01/27 12:43:18;;;;;;;16.75;10.55;;;5.70;99.90;;;;;;12601248;28;20075;-37
2022/01/27 12:50:06;;;;;;;17.73;11.10;;;5.70;99.90;;;;;;12602779;28;20079;-37
2022/01/27 12:56:10;;;;;;;16.20;9.30;;;5.80;99.90;;;;;;12571430;28;20048;-40
2022/01/27 13:02:12;;;;;;;16.70;9.60;;;5.80;99.90;;;;;;12598403;28;20056;-41
2022/01/27 13:08:17;;;;;;;13.80;8.70;;;5.90;99.90;;;;;;12598581;28;20324;-41
2022/01/27 13:14:20;;;;;;;12.88;8.50;;;5.80;99.90;;;;;;12597860;28;20044;-41
2022/01/27 13:20:36;;;;;;;11.15;7.28;;;5.90;99.90;;;;;;12607998;28;20150;-36
2022/01/27 13:26:44;;;;;;;11.75;6.20;;;5.90;99.90;;;;;;12602331;28;20064;-41
2022/01/27 13:32:47;;;;;;;10.10;6.30;;;6.00;99.90;;;;;;12588034;28;20468;-42
2022/01/27 13:39:01;;;;;;;8.35;6.15;;;6.10;99.90;;;;;;12589444;28;20079;-37
2022/01/27 13:45:04;;;;;;;9.73;6.07;;;6.10;99.90;;;;;;12602278;28;20048;-41
2022/01/27 13:51:06;;;;;;;12.40;7.10;;;6.10;99.90;;;;;;12601903;28;20097;-37
2022/01/27 13:57:14;;;;;;;11.88;8.05;;;6.20;99.90;;;;;;12606978;28;20527;-41
2022/01/27 14:03:20;;;;;;;15.48;9.85;;;6.20;99.90;;;;;;12581216;28;20070;-41
2022/01/27 14:09:27;;;;;;;14.10;8.68;;;6.20;99.90;;;;;;12606681;28;20060;-37
2022/01/27 14:15:32;;;;;;;16.13;9.77;;;6.20;99.90;;;;;;12585672;28;20060;-42
2022/01/27 14:21:42;;;;;;;19.15;9.65;;;6.30;99.90;;;;;;12597480;28;20059;-40
2022/01/27 14:28:01;;;;;;;16.23;8.95;;;6.30;99.90;;;;;;12584136;28;20051;-41
2022/01/27 14:34:03;;;;;;;16.45;9.73;;;6.40;99.90;;;;;;12596667;28;20052;-38
2022/01/27 14:40:13;;;;;;;15.52;9.68;;;6.40;99.90;;;;;;12602747;28;20075;-38
2022/01/27 14:46:22;;;;;;;16.00;10.02;;;6.50;99.90;;;;;;12602135;28;20071;-41
2022/01/27 14:52:30;;;;;;;16.52;9.20;;;6.50;99.90;;;;;;12602974;28;20413;-41
2022/01/27 14:59:03;;;;;;;16.48;8.93;;;6.60;99.90;;;;;;12609927;28;20052;-40
2022/01/27 15:05:08;;;;;;;14.70;8.15;;;6.70;99.90;;;;;;12580509;28;20060;-38
2022/01/27 15:11:11;;;;;;;16.33;7.70;;;6.70;99.90;;;;;;12599588;28;20048;-38
2022/01/27 15:23:38;;;;;;;10.05;5.25;;;6.90;99.90;;;;;;12583481;28;20056;-41
2022/01/27 15:29:41;;;;;;;14.85;7.43;;;6.80;99.90;;;;;;12542082;28;20140;-37
2022/01/27 15:35:44;;;;;;;14.20;8.30;;;6.80;99.90;;;;;;12550844;28;20052;-37
2022/01/27 15:41:50;;;;;;;16.42;7.85;;;6.70;99.90;;;;;;12546853;28;20048;-37
2022/01/27 15:47:54;;;;;;;23.00;7.70;;;6.70;99.90;;;;;;12550511;28;20053;-42
2022/01/27 15:54:02;;;;;;;15.18;5.80;;;6.70;99.90;;;;;;12547612;28;20117;-37
2022/01/27 16:00:07;;;;;;;16.33;5.50;;;7.00;99.90;;;;;;12549982;28;20097;-43
2022/01/27 16:06:10;;;;;;;14.80;5.28;;;6.90;99.90;;;;;;12547978;28;20056;-37
2022/01/27 16:12:33;;;;;;;15.35;4.65;;;6.90;99.90;;;;;;12546488;28;20080;-42
2022/01/27 16:18:35;;;;;;;10.73;4.10;;;6.90;99.90;;;;;;12547064;28;20097;-37
2022/01/27 16:24:38;;;;;;;9.45;2.58;;;6.80;99.90;;;;;;12562114;28;20459;-37
2022/01/27 16:30:39;;;;;;;6.85;1.48;;;6.70;99.90;;;;;;12595643;28;20057;-37
2022/01/27 16:36:41;;;;;;;4.00;0.80;;;6.20;99.90;;;;;;12599285;28;20143;-41
2022/01/27 16:42:44;;;;;;;4.28;0.70;;;5.80;99.90;;;;;;12590171;28;20055;-40
2022/01/27 16:48:46;;;;;;;6.28;0.80;;;5.50;99.90;;;;;;12599435;28;20047;-37
2022/01/27 16:54:49;;;;;;;6.38;0.70;;;5.40;99.90;;;;;;12603028;28;20079;-42
2022/01/27 17:00:51;;;;;;;3.15;0.80;;;5.50;99.90;;;;;;12605803;28;20481;-37
2022/01/27 17:06:54;;;;;;;3.53;0.90;;;5.50;99.90;;;;;;12589649;28;20970;-37
2022/01/27 17:12:56;;;;;;;3.88;0.70;;;5.60;99.90;;;;;;12608250;28;20571;-37
2022/01/27 17:18:59;;;;;;;5.15;0.63;;;5.60;99.90;;;;;;12595573;28;20082;-41
2022/01/27 17:25:05;;;;;;;4.22;0.60;;;5.60;99.90;;;;;;12592510;28;20093;-38
2022/01/27 17:31:13;;;;;;;7.30;1.13;;;5.60;99.90;;;;;;12577149;28;20174;-37
2022/01/27 17:37:15;;;;;;;6.25;1.23;;;5.60;99.90;;;;;;12608944;28;20053;-41
2022/01/27 17:43:31;;;;;;;7.70;1.50;;;5.60;99.90;;;;;;12601421;28;20051;-42
2022/01/27 17:49:33;;;;;;;10.90;2.28;;;5.70;99.90;;;;;;12600522;28;20056;-41
2022/01/27 17:55:35;;;;;;;10.13;2.00;;;5.80;99.90;;;;;;12581572;28;20071;-41
2022/01/27 18:01:40;;;;;;;10.13;1.60;;;5.80;99.90;;;;;;12592496;28;20657;-37
2022/01/27 18:07:46;;;;;;;17.88;1.98;;;5.80;99.90;;;;;;12592240;28;20052;-37
2022/01/27 18:13:49;;;;;;;10.70;2.20;;;5.80;99.90;;;;;;12591297;28;20105;-41
2022/01/27 18:19:52;;;;;;;16.02;1.98;;;5.80;99.90;;;;;;12599226;28;20080;-37
2022/01/27 18:25:54;;;;;;;12.07;1.98;;;5.70;99.90;;;;;;12600144;28;20135;-37
2022/01/27 18:31:56;;;;;;;15.77;2.20;;;5.90;99.90;;;;;;12591688;28;20055;-38
2022/01/27 18:37:58;;;;;;;11.48;2.40;;;5.80;99.90;;;;;;12601086;28;20048;-41
2022/01/27 18:44:01;;;;;;;9.43;2.25;;;5.80;99.90;;;;;;12603636;28;20047;-36
2022/01/27 18:50:05;;;;;;;7.65;1.30;;;5.70;99.90;;;;;;12600024;28;20087;-40
2022/01/27 18:56:07;;;;;;;7.50;1.27;;;5.60;99.90;;;;;;12600180;28;20394;-37
2022/01/27 19:02:10;;;;;;;11.63;2.45;;;5.60;99.90;;;;;;12603434;28;20043;-38
2022/01/27 19:08:18;;;;;;;8.82;1.58;;;5.40;99.90;;;;;;12603961;28;20063;-41
2022/01/27 19:14:20;;;;;;;18.38;2.03;;;5.50;99.90;;;;;;12598360;28;20093;-41
2022/01/27 19:20:25;;;;;;;17.52;1.85;;;5.50;99.90;;;;;;12597832;28;20420;-37
2022/01/27 19:26:28;;;;;;;9.40;2.17;;;5.40;99.90;;;;;;12598806;28;20849;-36
2022/01/27 19:32:31;;;;;;;15.40;2.10;;;5.40;99.90;;;;;;12597431;28;20105;-41
2022/01/27 19:38:33;;;;;;;16.35;2.15;;;5.60;99.90;;;;;;12595226;28;20051;-37
2022/01/27 19:44:36;;;;;;;18.83;2.83;;;5.50;99.90;;;;;;12598714;28;20162;-37
2022/01/27 19:50:39;;;;;;;11.10;1.90;;;5.60;99.90;;;;;;12599123;28;20063;-41
2022/01/27 19:56:43;;;;;;;10.88;2.08;;;5.60;99.90;;;;;;12579577;28;20052;-41
2022/01/27 20:02:52;;;;;;;15.23;2.03;;;5.60;99.90;;;;;;12596516;28;20056;-36
2022/01/27 20:08:54;;;;;;;6.90;1.50;;;5.50;99.90;;;;;;12597447;28;20211;-39
2022/01/27 20:14:57;;;;;;;5.20;0.70;;;3.60;99.90;;;;;;12592197;28;20080;-40
2022/01/27 20:21:08;;;;;;;;;;;3.00;99.90;;;;;;12581475;28;20044;-37
2022/01/27 20:27:13;;;;;;;4.78;0.70;;;3.00;99.90;;;;;;12588575;28;19924;-40
2022/01/27 20:33:17;;;;;;;10.80;1.00;;;3.00;99.90;;;;;;12594843;28;20512;-36
2022/01/27 20:39:19;;;;;;;10.05;1.58;;;3.10;99.90;;;;;;12593854;28;20055;-40
2022/01/27 20:45:21;;;;;;;8.18;1.20;;;3.10;99.90;;;;;;12583002;28;20090;-40
2022/01/27 20:51:23;;;;;;;10.05;0.98;;;3.20;99.90;;;;;;12583572;28;20044;-40
2022/01/27 20:57:25;;;;;;;10.32;1.30;;;3.40;99.90;;;;;;12594458;28;20071;-40
2022/01/27 21:03:27;;;;;;;6.20;1.33;;;3.40;99.90;;;;;;12594150;28;20056;-40
2022/01/27 21:09:33;;;;;;;12.77;1.95;;;3.40;99.90;;;;;;12594381;28;20040;-38
2022/01/27 21:15:35;;;;;;;9.40;1.60;;;3.30;99.90;;;;;;12595594;28;20409;-37
2022/01/27 21:21:37;;;;;;;6.53;0.95;;;3.60;99.90;;;;;;12592368;28;20052;-36
2022/01/27 21:27:40;;;;;;;5.90;1.50;;;3.50;99.90;;;;;;12590715;28;20061;-40
2022/01/27 21:33:42;;;;;;;12.18;1.20;;;3.70;99.90;;;;;;12592833;28;20101;-36
2022/01/27 21:39:45;;;;;;;10.07;1.33;;;3.80;99.90;;;;;;12591500;28;20151;-41
2022/01/27 21:45:47;;;;;;;8.80;1.40;;;3.80;99.90;;;;;;12601859;28;20051;-36
2022/01/27 21:51:50;;;;;;;9.00;1.63;;;3.80;99.90;;;;;;12597955;28;20099;-41
2022/01/27 21:57:58;;;;;;;12.88;1.90;;;3.90;99.90;;;;;;12605110;28;20064;-37
2022/01/27 22:04:00;;;;;;;15.32;1.73;;;3.90;99.90;;;;;;12602412;28;20052;-41
2022/01/27 22:10:04;;;;;;;10.23;1.30;;;3.90;99.90;;;;;;12600448;28;20059;-40
2022/01/27 22:16:06;;;;;;;11.93;1.60;;;4.00;99.90;;;;;;12584953;28;20127;-36
2022/01/27 22:22:09;;;;;;;6.00;1.10;;;4.20;99.90;;;;;;12603316;28;20085;-40
2022/01/27 22:28:11;;;;;;;10.45;1.40;;;4.20;99.90;;;;;;12598539;28;20152;-36
2022/01/27 22:34:14;;;;;;;12.98;1.45;;;4.00;99.90;;;;;;12598649;28;20489;-41
2022/01/27 22:40:18;;;;;;;8.82;1.55;;;3.80;99.90;;;;;;12595119;28;20103;-37
2022/01/27 22:46:20;;;;;;;8.52;1.02;;;3.90;99.90;;;;;;12602424;28;20495;-36
2022/01/27 22:52:23;;;;;;;8.25;1.42;;;4.10;99.90;;;;;;12600947;28;20620;-40
2022/01/27 22:58:25;;;;;;;15.02;1.60;;;4.10;99.90;;;;;;12601123;28;20093;-40
2022/01/27 23:04:27;;;;;;;15.70;1.70;;;4.10;99.90;;;;;;12579141;28;20068;-37
2022/01/27 23:10:30;;;;;;;12.05;2.22;;;4.10;99.90;;;;;;12602008;28;20105;-37
2022/01/27 23:22:43;;;;;;;11.65;1.77;;;4.10;99.90;;;;;;12597142;28;20557;-36
2022/01/27 23:28:51;;;;;;;12.07;1.50;;;4.10;99.90;;;;;;12597279;28;20081;-40
2022/01/27 23:34:53;;;;;;;18.00;2.30;;;4.20;99.90;;;;;;12598728;28;20101;-36
2022/01/27 23:41:04;;;;;;;22.73;3.22;;;4.20;99.90;;;;;;12580812;28;20056;-36
2022/01/27 23:59:52;;;;;;;18.77;2.00;;;4.30;99.90;;;;;;12600460;28;20089;-36
